»·PEaware :: SWA2907 KPSP-KSAN

SWA2907 :: KPSP-KSAN

FLIGHT INFORMATION

Flight Status: Arrived
Operator:
Southwest Airlines
More flights by this operator :: More flights under this callsign
Pilot: Thomas D. (10387)
Aircraft: BOEING 737-800
(B738)
More flights by this aircraft type
Origin: KPSP Palm Springs Intl
United States
Destination: KSAN San Diego Intl-Lindbergh
United States
More flights between these airports :: More routes between these airports
Route: +CATH1 PSP TRM V514 MZB
File this flight plan on PilotEdge
Remarks:
Altitude:
(Current/Filed)
16,000ft
Speed:
(Current/Filed)
420kts
Departed: 06-Jan-18 03:22 PM
Arrived: 06-Jan-18 03:49 PM
Distance/Time
Traveled:
74nm/0:27
Distance/Time
To Go:
Arrived

Flight Plot

Page will automatically refresh every two minutes.


Map Options




Map Legend


Flown Route
Filed Route
Departure Airport
Arrival Airport
Navaid (VOR, NDB)
Fix

Horizontal Profiles

Position Reports

Time Latitude Longitude Heading Altitude Ground
Speed
06-Jan-18 14:34 33.823418 -116.505901 245 484ft 0kts
06-Jan-18 14:35 33.823418 -116.505901 245 484ft 0kts
06-Jan-18 14:36 33.823418 -116.505901 245 484ft 0kts
06-Jan-18 14:37 33.823418 -116.505901 245 484ft 0kts
06-Jan-18 14:38 33.823418 -116.505901 245 484ft 0kts
06-Jan-18 14:39 33.823418 -116.505901 245 484ft 0kts
06-Jan-18 14:40 33.823418 -116.505901 245 484ft 0kts
06-Jan-18 14:41 33.823418 -116.505901 245 484ft 0kts
06-Jan-18 14:42 33.823418 -116.505901 245 484ft 0kts
06-Jan-18 14:43 33.823418 -116.505901 245 484ft 0kts
06-Jan-18 14:44 33.823418 -116.505901 245 484ft 0kts
06-Jan-18 14:45 33.823418 -116.505901 245 484ft 0kts
06-Jan-18 14:46 33.823418 -116.505901 245 484ft 0kts
06-Jan-18 14:47 33.823418 -116.505901 245 485ft 0kts
06-Jan-18 14:48 33.823418 -116.505901 245 485ft 0kts
06-Jan-18 14:49 33.823418 -116.505901 245 485ft 0kts
06-Jan-18 14:50 33.823418 -116.505901 245 485ft 0kts
06-Jan-18 14:51 33.823418 -116.505901 245 485ft 0kts
06-Jan-18 14:52 33.823418 -116.505901 245 485ft 0kts
06-Jan-18 14:53 33.823418 -116.505901 245 485ft 0kts
06-Jan-18 14:54 33.823418 -116.505901 245 485ft 0kts
06-Jan-18 14:55 33.823418 -116.505901 245 485ft 0kts
06-Jan-18 14:56 33.823418 -116.505901 245 485ft 0kts
06-Jan-18 14:57 33.823418 -116.505901 245 485ft 0kts
06-Jan-18 14:58 33.823418 -116.505901 245 485ft 0kts
06-Jan-18 14:59 33.823418 -116.505901 245 485ft 0kts
06-Jan-18 15:00 33.823418 -116.505901 245 485ft 0kts
06-Jan-18 15:01 33.823418 -116.505901 245 485ft 0kts
06-Jan-18 15:02 33.823418 -116.505901 245 485ft 0kts
06-Jan-18 15:03 33.823418 -116.505901 245 485ft 0kts
06-Jan-18 15:04 33.823418 -116.505901 245 485ft 0kts
06-Jan-18 15:05 33.823418 -116.505901 245 485ft 0kts
06-Jan-18 15:06 33.823418 -116.505901 245 485ft 0kts
06-Jan-18 15:07 33.823418 -116.505901 245 485ft 0kts
06-Jan-18 15:08 33.823418 -116.505901 245 485ft 0kts
06-Jan-18 15:09 33.823418 -116.505901 245 485ft 0kts
06-Jan-18 15:10 33.823418 -116.505901 245 485ft 0kts
06-Jan-18 15:11 33.823418 -116.505901 245 485ft 0kts
06-Jan-18 15:12 33.823418 -116.505901 245 485ft 0kts
06-Jan-18 15:13 33.823538 -116.505539 255 485ft 2kts
06-Jan-18 15:14 33.823411 -116.505031 323 485ft 0kts
06-Jan-18 15:15 33.823411 -116.505031 323 485ft 0kts
06-Jan-18 15:16 33.823411 -116.505031 323 485ft 0kts
06-Jan-18 15:17 33.823411 -116.505031 323 485ft 0kts
06-Jan-18 15:18 33.823411 -116.505031 323 485ft 0kts
06-Jan-18 15:19 33.823411 -116.505031 323 485ft 0kts
06-Jan-18 15:20 33.823847 -116.505416 323 485ft 3kts
06-Jan-18 15:21 33.826189 -116.506617 324 485ft 14kts
06-Jan-18 15:22 33.830301 -116.510391 323 485ft 19kts
06-Jan-18 15:23 33.833197 -116.512948 323 485ft 8kts
06-Jan-18 15:24 33.836419 -116.515818 331 485ft 21kts
06-Jan-18 15:25 33.839468 -116.517756 17 485ft 0kts
06-Jan-18 15:26 33.839469 -116.517756 17 485ft 0kts
06-Jan-18 15:27 33.839318 -116.516242 143 485ft 14kts
06-Jan-18 15:28 33.814555 -116.493701 135 2037ft 160kts
06-Jan-18 15:29 33.805148 -116.433668 67 4154ft 243kts
06-Jan-18 15:30 33.836481 -116.353108 98 7169ft 289kts
06-Jan-18 15:31 33.782839 -116.283478 149 10594ft 303kts
06-Jan-18 15:32 33.705412 -116.221667 149 12497ft 373kts
06-Jan-18 15:33 33.606414 -116.180783 195 12959ft 380kts
06-Jan-18 15:34 33.521496 -116.250006 221 13597ft 374kts
06-Jan-18 15:35 33.438078 -116.327263 218 15987ft 384kts
06-Jan-18 15:36 33.348962 -116.405484 218 16028ft 402kts
06-Jan-18 15:37 33.258573 -116.483774 217 16047ft 401kts
06-Jan-18 15:38 33.167481 -116.561751 214 16073ft 403kts
06-Jan-18 15:39 33.058185 -116.594732 188 16095ft 413kts
06-Jan-18 15:40 32.943222 -116.606464 188 16098ft 413kts
06-Jan-18 15:41 32.832021 -116.622002 203 14354ft 392kts
06-Jan-18 15:42 32.740295 -116.682008 191 11755ft 378kts
06-Jan-18 15:43 32.644636 -116.699438 191 10548ft 311kts
06-Jan-18 15:44 32.576658 -116.734888 256 9394ft 262kts
06-Jan-18 15:45 32.586766 -116.811606 292 8402ft 226kts
06-Jan-18 15:46 32.636547 -116.822955 10 6898ft 234kts
06-Jan-18 15:47 32.683516 -116.842207 266 5656ft 210kts
06-Jan-18 15:48 32.667110 -116.902000 254 4965ft 172kts
06-Jan-18 15:49 32.676454 -116.955282 286 4088ft 165kts
06-Jan-18 15:50 32.689024 -117.009243 286 3251ft 168kts
06-Jan-18 15:51 32.701163 -117.060121 290 1841ft 156kts
06-Jan-18 15:52 32.713052 -117.106913 285 948ft 146kts
06-Jan-18 15:53 32.724542 -117.151986 286 547ft 149kts
06-Jan-18 15:54 32.735828 -117.198934 286 23ft 79kts
06-Jan-18 15:55 32.736269 -117.204201 195 23ft 0kts

Navigation Log

Ident Type
1. KPSP Airport
2. PSP Navaid
3. TRM Navaid
4. WARNE Fix
5. JLI Navaid
6. CANNO Fix
7. BARET Fix
8. RYAHH Fix
9. HAILE Fix
10. MZB Navaid
11. KSAN Airport